KMQB

Macomb Municipal Airport

Macomb, Illinois, USA
METAR KMQB 151915Z AUTO 25014KT 10SM OVC060 03/M06 A3001 RMK AO2 T00321061
Observed Flight Rules
Dec-15 @ 19:15 UTC (19 minutes ago) Visual Flight Rules
Wind Visibility Clouds
250° at 14 knots 10 miles
  • Overcast at 6,000' AGL
Temperatures Readings
Current 3°C / 37°F
Dewpoint -6°C / 21°F
Humidity 52%
Altimeter 30.01" Hg
Pressure 1016 hPa
Elevation 215
METAR KMQB 151915Z AUTO 25014KT 10SM OVC060 03/M06 A3001 RMK AO2 T00321061
Observed Flight Rules
Dec-15 @ 19:15 UTC
(19 minutes ago)
VFR
Wind Visibility
250° at 14 knots 10 miles
Clouds
  • Overcast at 6,000' AGL
Temperature Dewpoint
3°C / 37°F -6°C / 21°F
Humidity Altimeter Pressure
52% 30.01" Hg 1016 hPa